Currently 77°F in French Valley, California, USA
77°F
77°F / 54°F
6 mph SW
0.00"
Saturday, May 2, 2026 12:39 PM PDT

French Valley, California Weather Summary
Last 36 Hours

Temperature Winds Hourly Humidity Dewpoint
Time Report Norm Report Norm Max Gusts Precip. Rpt. Norm Rpt. Norm Pressure
1Sat 12:39 PM  76.6°F  73°F  6 mph SW  4 mph  9 mph  0.00"  60%  49%  61°F  52°F  29.93"
2Sat 12:38 PM  76.6°F  73°F  4 mph SW  4 mph  9 mph  ----  60%  49%  61°F  52°F  29.93"
Sat 12:00 PM  73.6°F  72°F  2 mph W  3 mph  8 mph  0.00"  69%  52%  62°F  52°F  29.94"
Sat 11:00 AM  66.8°F  69°F  3 mph S  3 mph  9 mph  0.00"  94%  58%  65°F  53°F  29.98"
Sat 10:00 AM  60.6°F  65°F  3 mph NW  2 mph  8 mph  0.00"  100%  66%  61°F  53°F  29.99"
Sat 09:00 AM  58.3°F  61°F  3 mph NW  2 mph  7 mph  0.00"  100%  76%  58°F  53°F  30.00"
Sat 08:00 AM  57.0°F  57°F  calm  1 mph  8 mph  0.00"  100%  83%  57°F  52°F  30.00"
Sat 07:00 AM  56.6°F  54°F  7 mph SE  1 mph  8 mph  0.00"  100%  87%  57°F  50°F  29.99"
Sat 06:00 AM  56.0°F  53°F  4 mph SE  1 mph  8 mph  0.00"  100%  88%  56°F  50°F  29.97"
Sat 05:00 AM  54.2°F  54°F  3 mph SE  1 mph  6 mph  0.00"  100%  87%  54°F  50°F  29.95"
3Sat 04:36 AM  53.7°F  54°F  4 mph SE  1 mph  4 mph  ----  100%  87%  54°F  50°F  29.95"
Sat 04:00 AM  55.0°F  54°F  calm  1 mph  none  0.00"  100%  87%  55°F  50°F  29.93"
Sat 03:00 AM  55.9°F  55°F  calm  1 mph  none  0.00"  100%  87%  56°F  51°F  29.93"
Sat 02:00 AM  56.9°F  56°F  calm  1 mph  none  0.00"  100%  85%  57°F  51°F  29.94"
Sat 01:00 AM  57.8°F  56°F  calm  1 mph  none  0.00"  100%  85%  58°F  52°F  29.95"
Sat 12:00 AM  58.7°F  57°F  calm  1 mph  none  0.00"  100%  84%  59°F  52°F  29.95"
Fri 11:00 PM  59.6°F  58°F  calm  1 mph  3 mph  0.00"  100%  83%  60°F  53°F  29.95"
Fri 10:00 PM  60.5°F  59°F  calm  2 mph  7 mph  0.00"  100%  81%  61°F  53°F  29.94"
Fri 09:00 PM  62.0°F  61°F  3 mph S  2 mph  11 mph  0.00"  98%  78%  62°F  53°F  29.93"
Fri 08:00 PM  65.2°F  63°F  7 mph S  3 mph  11 mph  0.00"  91%  72%  63°F  54°F  29.90"
Fri 07:00 PM  70.5°F  67°F  6 mph S  4 mph  11 mph  0.00"  75%  65%  62°F  54°F  29.87"
Fri 06:00 PM  73.9°F  70°F  7 mph S  5 mph  12 mph  0.00"  69%  58%  63°F  54°F  29.86"
Fri 05:00 PM  76.3°F  72°F  8 mph S  6 mph  15 mph  0.00"  65%  54%  63°F  54°F  29.85"
Fri 04:00 PM  78.5°F  74°F  5 mph SW  5 mph  13 mph  0.00"  61%  51%  63°F  54°F  29.85"
Fri 03:00 PM  80.2°F  74°F  5 mph SW  5 mph  14 mph  0.00"  56%  50%  63°F  54°F  29.88"
Fri 02:00 PM  80.2°F  75°F  6 mph SW  5 mph  10 mph  0.00"  56%  48%  63°F  53°F  29.91"
Fri 01:00 PM  75.7°F  74°F  5 mph SW  4 mph  9 mph  0.00"  62%  49%  61°F  53°F  29.93"
Fri 12:00 PM  70.9°F  72°F  4 mph SW  3 mph  8 mph  0.00"  73%  52%  62°F  52°F  29.96"
Fri 11:00 AM  65.2°F  69°F  calm  3 mph  8 mph  0.00"  95%  57%  64°F  53°F  29.98"
Fri 10:00 AM  59.2°F  65°F  4 mph SW  2 mph  7 mph  0.00"  100%  66%  59°F  53°F  29.99"
Fri 09:00 AM  56.5°F  61°F  calm  2 mph  5 mph  0.00"  100%  75%  56°F  53°F  30.00"
Fri 08:00 AM  55.5°F  57°F  calm  1 mph  4 mph  0.00"  100%  83%  55°F  52°F  29.99"
Fri 07:00 AM  54.9°F  54°F  calm  1 mph  5 mph  0.00"  100%  87%  55°F  50°F  29.98"
Fri 06:00 AM  55.0°F  53°F  2 mph W  1 mph  5 mph  0.00"  100%  88%  55°F  50°F  29.96"
Fri 05:00 AM  55.3°F  54°F  3 mph S  1 mph  5 mph  0.00"  100%  87%  55°F  50°F  29.95"
Fri 04:00 AM  55.6°F  54°F  1 mph SE  1 mph  6 mph  0.00"  100%  87%  56°F  50°F  29.95"
Fri 03:00 AM  55.6°F  55°F  2 mph SE  1 mph  5 mph  0.00"  100%  86%  56°F  51°F  29.94"
Fri 02:00 AM  55.2°F  56°F  3 mph SE  1 mph  6 mph  0.00"  100%  85%  55°F  51°F  29.95"
Fri 01:00 AM  55.0°F  56°F  2 mph SE  1 mph  4 mph  0.00"  100%  85%  55°F  52°F  29.94"

  1. Current weather data. No green row appears if the current weather data is also the high or low for the current day.
  2. High temperature for the current day.
  3. Low temperature for the current day.

The French Valley, California weather pages are a service of WeatherCurrents. French Valley is located in southwestern Riverside County, California, north of Temecula, east of Murrieta, and south of Winchester. French Valley is bordered by Lake Skinner.
Copyright ©Sat May 02 12:39:43 PDT 2026  WeatherCurrents. All rights reserved. - Submit questions and comments - Privacy Policy

This page automatically refreshes every 10 minutes.